Time;durP1;ratioP1;P1;durP2;ratioP2;P2;SDS_P1;SDS_P2;PMS_P1;PMS_P2;Temp;Humidity;BMP_temperature;BMP_pressure;BME280_temperature;BME280_humidity;BME280_pressure;Samples;Min_cycle;Max_cycle;Signal;HPM_P1;HPM_P2
2022/10/23 00:02:10;;;;;;;10.10;5.00;;;;;;;11.41;100.00;96432.13;5039710;28;20036;-76
2022/10/23 00:04:36;;;;;;;9.70;5.00;;;;;;;11.41;100.00;96430.31;5046554;28;20064;-77
2022/10/23 00:07:01;;;;;;;7.70;4.83;;;;;;;11.45;100.00;96433.44;5044865;28;20482;-77
2022/10/23 00:09:27;;;;;;;12.37;5.33;;;;;;;11.43;100.00;96428.31;5044130;28;20021;-77
2022/10/23 00:11:53;;;;;;;10.40;4.73;;;;;;;11.50;100.00;96429.34;5051773;28;20791;-76
2022/10/23 00:14:22;;;;;;;10.27;4.33;;;;;;;11.50;100.00;96420.59;5033860;28;20025;-76
2022/10/23 00:16:47;;;;;;;7.03;3.90;;;;;;;11.47;100.00;96429.66;5044855;28;20394;-76
2022/10/23 00:19:13;;;;;;;10.23;3.90;;;;;;;11.48;100.00;96415.50;5050957;28;20033;-76
2022/10/23 00:21:39;;;;;;;9.30;4.03;;;;;;;11.46;100.00;96412.19;5045314;28;20040;-77
2022/10/23 00:24:05;;;;;;;9.03;4.57;;;;;;;11.40;100.00;96420.75;5047397;28;20446;-76
2022/10/23 00:26:31;;;;;;;7.70;3.63;;;;;;;11.45;100.00;96421.09;5044953;28;20454;-77
2022/10/23 00:28:57;;;;;;;8.90;4.70;;;;;;;11.45;100.00;96415.81;5044076;28;20064;-77
2022/10/23 00:31:23;;;;;;;8.93;4.03;;;;;;;11.44;100.00;96408.91;5044550;28;20036;-76
2022/10/23 00:33:50;;;;;;;8.57;3.93;;;;;;;11.41;100.00;96413.69;5044864;28;20120;-77
2022/10/23 00:36:17;;;;;;;8.20;3.80;;;;;;;11.45;100.00;96407.09;5040230;28;20072;-77
2022/10/23 00:38:44;;;;;;;7.33;4.30;;;;;;;11.35;100.00;96401.16;5037462;28;20478;-77
2022/10/23 00:41:18;;;;;;;9.57;3.77;;;;;;;11.36;100.00;96400.16;5049281;28;20029;-76
2022/10/23 00:44:05;;;;;;;9.77;4.00;;;;;;;11.36;100.00;96398.34;5039927;28;20032;-76
2022/10/23 00:46:32;;;;;;;11.30;4.20;;;;;;;11.32;100.00;96389.13;5049919;28;20398;-77
2022/10/23 00:48:58;;;;;;;7.83;4.40;;;;;;;11.31;100.00;96390.13;5051286;28;20037;-76
2022/10/23 00:51:28;;;;;;;8.17;3.60;;;;;;;11.33;100.00;96383.72;5048329;28;20032;-76
2022/10/23 00:53:56;;;;;;;7.40;3.87;;;;;;;11.31;100.00;96382.22;5043136;28;20877;-76
2022/10/23 00:56:24;;;;;;;8.77;3.60;;;;;;;11.35;100.00;96378.28;5030422;28;20145;-77
2022/10/23 00:58:50;;;;;;;11.67;3.50;;;;;;;11.41;100.00;96377.63;5038038;28;20044;-76
2022/10/23 01:01:21;;;;;;;6.17;3.20;;;;;;;11.49;100.00;96371.56;5042281;28;20033;-76
2022/10/23 01:03:48;;;;;;;4.83;2.90;;;;;;;11.61;100.00;96367.63;5043528;28;20076;-76
2022/10/23 01:06:27;;;;;;;7.80;3.03;;;;;;;11.68;100.00;96363.38;5050138;28;20037;-76
2022/10/23 01:09:09;;;;;;;8.63;3.10;;;;;;;11.73;100.00;96366.31;5048026;28;20033;-77
2022/10/23 01:11:51;;;;;;;5.33;2.77;;;;;;;11.76;100.00;96359.91;5025349;28;20037;-76
2022/10/23 01:14:23;;;;;;;7.70;3.03;;;;;;;11.92;100.00;96352.03;5043417;28;20024;-76
2022/10/23 01:17:11;;;;;;;6.43;2.50;;;;;;;12.00;100.00;96345.94;5031821;28;20683;-77
2022/10/23 01:20:08;;;;;;;6.53;3.07;;;;;;;12.10;100.00;96343.13;5047639;28;20041;-76
2022/10/23 01:22:58;;;;;;;6.80;3.08;;;;;;;12.05;100.00;96342.84;5042079;28;20036;-76
2022/10/23 01:25:58;;;;;;;4.67;2.30;;;;;;;11.94;100.00;96344.00;5039503;28;20041;-77
2022/10/23 01:28:48;;;;;;;7.43;2.43;;;;;;;11.82;100.00;96340.81;5051820;28;20028;-76
2022/10/23 01:31:34;;;;;;;7.20;2.27;;;;;;;11.79;100.00;96349.03;5038091;28;20029;-77
2022/10/23 01:34:10;;;;;;;9.73;2.30;;;;;;;11.77;100.00;96353.66;5044670;28;20042;-77
2022/10/23 01:36:43;;;;;;;5.47;2.53;;;;;;;11.70;100.00;96352.66;5012343;28;20030;-76
2022/10/23 01:39:17;;;;;;;4.53;2.30;;;;;;;11.64;100.00;96355.97;5033512;28;20025;-77
2022/10/23 01:41:50;;;;;;;4.57;2.73;;;;;;;11.59;100.00;96355.63;5046899;28;20080;-77
2022/10/23 01:44:35;;;;;;;8.87;2.63;;;;;;;11.61;100.00;96346.56;5048131;28;20032;-76
2022/10/23 01:47:04;;;;;;;7.00;2.50;;;;;;;11.50;100.00;96344.22;5046925;28;20028;-76
2022/10/23 01:49:36;;;;;;;7.03;2.33;;;;;;;11.53;100.00;96344.72;5047271;28;20021;-77
2022/10/23 01:52:07;;;;;;;4.50;1.90;;;;;;;11.51;100.00;96345.91;5047951;28;20036;-76
2022/10/23 01:54:38;;;;;;;5.07;2.30;;;;;;;11.44;100.00;96335.19;5059185;28;20036;-76
2022/10/23 01:57:08;;;;;;;7.80;2.87;;;;;;;11.47;100.00;96331.41;5044642;28;20033;-77
2022/10/23 01:59:43;;;;;;;5.30;2.00;;;;;;;11.37;100.00;96338.59;5043778;28;20032;-77
2022/10/23 02:02:12;;;;;;;5.77;2.53;;;;;;;11.59;100.00;96324.00;5027392;28;20034;-76
2022/10/23 02:05:06;;;;;;;4.33;1.87;;;;;;;11.51;100.00;96315.09;5050614;28;20029;-76
2022/10/23 02:07:32;;;;;;;4.07;1.80;;;;;;;11.50;100.00;96321.38;5051422;28;21019;-77
2022/10/23 02:09:58;;;;;;;5.20;2.17;;;;;;;11.55;100.00;96318.25;5043535;28;20037;-76
2022/10/23 02:12:39;;;;;;;5.30;2.30;;;;;;;11.51;100.00;96309.84;5049480;28;20032;-77
2022/10/23 02:15:13;;;;;;;3.33;1.80;;;;;;;11.45;100.00;96305.22;5050423;28;20040;-77
2022/10/23 02:17:46;;;;;;;5.53;2.03;;;;;;;11.45;100.00;96305.22;5040715;28;20037;-76
2022/10/23 02:20:33;;;;;;;3.25;1.25;;;;;;;11.48;100.00;96304.91;5054180;28;20498;-76
2022/10/23 02:23:05;;;;;;;6.93;2.13;;;;;;;11.45;100.00;96309.66;5050039;28;20064;-76
2022/10/23 02:25:41;;;;;;;5.67;2.00;;;;;;;11.50;100.00;96308.22;5049277;28;20033;-77
2022/10/23 02:28:13;;;;;;;6.17;2.23;;;;;;;11.46;100.00;96312.13;5047833;28;20469;-77
2022/10/23 02:30:49;;;;;;;10.60;2.10;;;;;;;11.43;100.00;96301.09;5049110;28;20106;-76
2022/10/23 02:33:16;;;;;;;5.67;1.90;;;;;;;11.46;100.00;96306.88;5033256;28;20040;-77
2022/10/23 02:35:42;;;;;;;4.83;2.00;;;;;;;11.51;100.00;96303.75;5050187;28;20024;-77
2022/10/23 02:38:39;;;;;;;3.10;1.73;;;;;;;11.42;100.00;96297.66;5048866;28;20033;-77
2022/10/23 02:41:14;;;;;;;5.13;2.13;;;;;;;11.43;100.00;96303.72;5046166;28;20056;-77
2022/10/23 02:44:18;;;;;;;5.23;1.70;;;;;;;11.46;100.00;96306.88;5032186;28;20033;-77
2022/10/23 02:47:06;;;;;;;4.07;1.70;;;;;;;11.44;100.00;96295.69;5060071;28;20748;-77
2022/10/23 02:49:53;;;;;;;6.27;1.80;;;;;;;11.45;100.00;96288.59;5039084;28;20051;-77
2022/10/23 02:52:22;;;;;;;3.50;1.43;;;;;;;11.49;100.00;96288.09;5049104;28;20074;-77
2022/10/23 02:54:57;;;;;;;5.23;1.80;;;;;;;11.52;100.00;96286.97;5042793;28;20041;-77
2022/10/23 02:57:31;;;;;;;4.33;1.90;;;;;;;11.56;100.00;96275.91;5048754;28;20029;-77
2022/10/23 03:00:06;;;;;;;4.53;1.80;;;;;;;11.59;100.00;96280.03;5048588;28;20037;-77
2022/10/23 03:02:35;;;;;;;5.43;2.00;;;;;;;11.58;100.00;96270.50;5047605;28;20037;-77
2022/10/23 03:05:04;;;;;;;5.27;1.53;;;;;;;11.53;100.00;96276.25;5045842;28;20029;-77
2022/10/23 03:07:31;;;;;;;3.83;1.77;;;;;;;11.56;100.00;96269.84;5044869;28;20029;-77
2022/10/23 03:10:05;;;;;;;4.47;2.10;;;;;;;11.52;100.00;96279.88;5030722;28;20021;-77
2022/10/23 03:12:32;;;;;;;4.90;1.90;;;;;;;11.52;100.00;96279.88;5030638;28;20038;-77
2022/10/23 03:14:58;;;;;;;4.83;1.77;;;;;;;11.47;100.00;96282.19;5036318;28;20130;-77
2022/10/23 03:17:24;;;;;;;6.37;1.60;;;;;;;11.45;100.00;96272.81;5037757;28;20040;-77
2022/10/23 03:19:53;;;;;;;3.60;1.60;;;;;;;11.47;100.00;96274.28;5061042;28;20029;-77
2022/10/23 03:22:18;;;;;;;4.83;1.60;;;;;;;11.42;100.00;96268.69;5046832;28;20025;-77
2022/10/23 03:24:46;;;;;;;2.87;1.43;;;;;;;11.50;100.00;96268.69;5033814;28;20051;-77
2022/10/23 03:27:11;;;;;;;4.30;1.47;;;;;;;11.52;100.00;96263.25;5033352;28;20453;-77
2022/10/23 03:29:37;;;;;;;3.10;1.50;;;;;;;11.52;100.00;96271.97;5035979;28;20033;-77
2022/10/23 03:32:04;;;;;;;3.07;1.53;;;;;;;11.51;100.00;96269.53;5046612;28;20035;-77
2022/10/23 03:34:30;;;;;;;3.27;1.50;;;;;;;11.52;100.00;96269.34;5049928;28;20112;-77
2022/10/23 03:36:55;;;;;;;4.53;1.60;;;;;;;11.54;100.00;96256.03;5033659;28;20087;-76
2022/10/23 03:39:21;;;;;;;3.80;1.40;;;;;;;11.57;100.00;96256.53;5045864;28;20087;-77
2022/10/23 03:41:47;;;;;;;2.30;1.20;;;;;;;11.61;100.00;96250.94;5028625;28;20040;-77
2022/10/23 03:44:15;;;;;;;3.13;1.47;;;;;;;11.54;100.00;96251.56;5045932;28;20025;-77
2022/10/23 03:46:43;;;;;;;3.87;1.47;;;;;;;11.48;100.00;96256.69;5038405;28;20086;-77
2022/10/23 03:49:09;;;;;;;3.07;1.30;;;;;;;11.54;100.00;96253.41;5031233;28;20088;-77
2022/10/23 03:51:35;;;;;;;4.53;1.50;;;;;;;11.58;100.00;96252.06;5038942;28;20200;-77
2022/10/23 03:54:02;;;;;;;2.50;1.00;;;;;;;11.52;100.00;96250.91;5042358;28;20510;-77
2022/10/23 03:56:28;;;;;;;3.83;1.43;;;;;;;11.65;100.00;96246.97;5009458;28;20116;-77
2022/10/23 03:58:54;;;;;;;3.23;1.27;;;;;;;11.72;100.00;96248.75;5041731;28;20029;-77
2022/10/23 04:01:22;;;;;;;6.73;2.23;;;;;;;11.77;100.00;96237.75;5040891;28;20140;-77
2022/10/23 04:03:48;;;;;;;2.97;1.03;;;;;;;11.74;100.00;96238.91;5042136;28;20827;-77
2022/10/23 04:06:15;;;;;;;2.37;1.00;;;;;;;11.68;100.00;96236.09;5031224;28;20030;-77
2022/10/23 04:08:42;;;;;;;3.27;0.90;;;;;;;11.73;100.00;96245.13;5045018;28;20119;-77
2022/10/23 04:11:13;;;;;;;3.47;1.13;;;;;;;11.72;100.00;96238.22;5050908;28;20024;-76
2022/10/23 04:13:44;;;;;;;3.03;1.00;;;;;;;11.70;100.00;96244.63;5030575;28;20152;-78
2022/10/23 04:16:09;;;;;;;2.63;1.00;;;;;;;11.71;100.00;96233.13;5029192;28;20128;-77
2022/10/23 04:18:36;;;;;;;4.00;1.20;;;;;;;11.74;100.00;96240.72;5043650;28;20036;-77
2022/10/23 04:21:02;;;;;;;4.97;1.10;;;;;;;11.68;100.00;96241.38;5037476;28;20036;-77
2022/10/23 04:23:28;;;;;;;4.60;1.23;;;;;;;11.68;100.00;96241.38;5047005;28;20048;-77
2022/10/23 04:25:56;;;;;;;3.57;1.20;;;;;;;11.62;100.00;96242.03;5037537;28;20033;-77
2022/10/23 04:28:24;;;;;;;2.73;1.10;;;;;;;11.67;100.00;96242.34;5044677;28;20075;-77
2022/10/23 04:30:50;;;;;;;4.00;1.30;;;;;;;11.61;100.00;96240.38;5045242;28;20040;-77
2022/10/23 04:33:16;;;;;;;3.63;0.83;;;;;;;11.54;100.00;96235.78;5046820;28;20508;-76
2022/10/23 04:35:42;;;;;;;4.40;1.47;;;;;;;11.57;100.00;96238.09;5029073;28;20059;-77
2022/10/23 04:38:09;;;;;;;2.83;0.93;;;;;;;11.62;100.00;96239.38;5056517;28;20443;-77
2022/10/23 04:40:35;;;;;;;2.63;1.13;;;;;;;11.61;100.00;96243.84;5037078;28;20041;-77
2022/10/23 04:43:02;;;;;;;2.97;1.20;;;;;;;11.63;100.00;96238.41;5044651;28;20127;-77
2022/10/23 04:45:31;;;;;;;2.10;1.20;;;;;;;11.55;100.00;96239.22;5045569;28;20359;-76
2022/10/23 04:47:57;;;;;;;5.00;1.80;;;;;;;11.55;100.00;96247.94;5044360;28;20040;-77
2022/10/23 04:50:24;;;;;;;2.73;1.20;;;;;;;11.58;100.00;96238.91;5028479;28;20032;-77
2022/10/23 04:53:20;;;;;;;2.30;1.00;;;;;;;11.57;100.00;96242.53;5030032;28;20061;-76
2022/10/23 04:56:06;;;;;;;4.90;1.27;;;;;;;11.47;100.00;96236.59;5044831;28;20037;-76
2022/10/23 04:58:37;;;;;;;3.60;1.20;;;;;;;11.49;100.00;96240.69;5036353;28;20099;-77
2022/10/23 05:01:02;;;;;;;3.87;1.23;;;;;;;11.52;100.00;96236.91;5052394;28;20036;-77
2022/10/23 05:03:28;;;;;;;3.20;1.60;;;;;;;11.40;100.00;96236.44;5036230;28;20109;-77
2022/10/23 05:05:55;;;;;;;3.70;1.13;;;;;;;11.50;100.00;96233.63;5036669;28;20090;-77
2022/10/23 05:08:36;;;;;;;3.93;1.70;;;;;;;11.39;100.00;96231.31;5044682;28;20047;-77
2022/10/23 05:11:37;;;;;;;4.87;1.53;;;;;;;11.40;100.00;96228.53;5062543;28;20501;-77
2022/10/23 05:14:06;;;;;;;3.30;1.20;;;;;;;11.47;100.00;96231.34;5048281;28;20505;-76
2022/10/23 05:16:38;;;;;;;4.10;1.10;;;;;;;11.49;100.00;96230.16;5028188;28;20120;-76
2022/10/23 05:19:07;;;;;;;8.17;3.07;;;;;;;11.43;100.00;96233.44;5041958;28;20494;-76
2022/10/23 05:21:34;;;;;;;2.97;1.33;;;;;;;11.49;100.00;96221.44;5052058;28;20029;-77
2022/10/23 05:24:04;;;;;;;5.13;2.30;;;;;;;11.41;100.00;96229.34;5048508;28;20454;-77
2022/10/23 05:26:30;;;;;;;6.07;2.83;;;;;;;11.32;100.00;96229.34;5047974;28;20041;-77
2022/10/23 05:29:02;;;;;;;4.80;1.50;;;;;;;11.39;100.00;96232.13;5056022;28;20021;-77
2022/10/23 05:31:28;;;;;;;5.63;2.13;;;;;;;11.27;100.00;96230.84;5029908;28;20040;-77
2022/10/23 05:34:02;;;;;;;3.93;1.43;;;;;;;11.29;100.00;96237.56;5032584;28;20029;-76
2022/10/23 05:36:29;;;;;;;2.87;1.40;;;;;;;11.20;100.00;96230.66;5047900;28;20722;-77
2022/10/23 05:38:57;;;;;;;4.00;1.47;;;;;;;11.29;100.00;96231.47;5026216;28;20669;-76
2022/10/23 05:41:22;;;;;;;9.30;1.87;;;;;;;11.22;100.00;96236.56;5045787;28;20116;-76
2022/10/23 05:43:48;;;;;;;5.10;1.73;;;;;;;11.17;100.00;96231.00;5044844;28;20120;-77
2022/10/23 05:46:49;;;;;;;2.77;1.13;;;;;;;11.25;100.00;96217.81;5017778;28;20075;-76
2022/10/23 05:49:38;;;;;;;3.73;1.40;;;;;;;11.23;100.00;96217.19;5041073;28;20053;-77
2022/10/23 05:52:31;;;;;;;2.58;1.20;;;;;;;11.24;100.00;96220.63;5043797;28;20397;-77
2022/10/23 05:55:12;;;;;;;2.87;1.43;;;;;;;11.35;100.00;96219.47;5048543;28;20037;-76
2022/10/23 05:57:50;;;;;;;5.27;1.40;;;;;;;11.40;100.00;96212.75;5047735;28;20125;-77
2022/10/23 06:00:22;;;;;;;3.63;1.40;;;;;;;11.42;100.00;96209.94;5048066;28;20028;-77
2022/10/23 06:03:01;;;;;;;3.67;1.40;;;;;;;11.48;100.00;96218.00;5044165;28;20576;-77
2022/10/23 06:05:38;;;;;;;1.57;1.10;;;;;;;11.52;100.00;96210.59;5046356;28;20033;-76
2022/10/23 06:08:21;;;;;;;3.63;1.10;;;;;;;11.61;100.00;96206.16;5047975;28;20040;-77
2022/10/23 06:10:49;;;;;;;8.33;2.70;;;;;;;11.73;100.00;96200.34;5047676;28;20390;-77
2022/10/23 06:13:15;;;;;;;14.73;6.00;;;;;;;11.75;100.00;96205.47;5048338;28;20115;-76
2022/10/23 06:15:41;;;;;;;20.40;9.33;;;;;;;11.80;100.00;96198.72;5032785;28;20673;-76
2022/10/23 06:18:12;;;;;;;7.53;3.40;;;;;;;11.90;100.00;96190.63;5031541;28;20032;-77
2022/10/23 06:20:49;;;;;;;5.77;1.30;;;;;;;11.92;100.00;96196.56;5047312;28;20047;-77
2022/10/23 06:23:22;;;;;;;6.50;1.45;;;;;;;12.03;100.00;96195.38;5032068;28;20041;-77
2022/10/23 06:26:11;;;;;;;3.23;1.40;;;;;;;12.18;100.00;96195.50;5047868;28;20045;-77
2022/10/23 06:29:00;;;;;;;2.00;1.00;;;;;;;12.21;100.00;96192.53;5047581;28;20043;-76
2022/10/23 06:31:27;;;;;;;3.50;1.60;;;;;;;12.19;100.00;96192.69;5031717;28;20029;-77
2022/10/23 06:33:56;;;;;;;4.60;2.27;;;;;;;12.19;100.00;96197.97;5047490;28;20041;-77
2022/10/23 06:36:23;;;;;;;6.07;2.07;;;;;;;12.21;100.00;96189.91;5031534;28;20024;-77
2022/10/23 06:38:50;;;;;;;4.23;1.37;;;;;;;12.30;100.00;96183.59;5047573;28;20032;-77
2022/10/23 06:41:20;;;;;;;5.93;2.00;;;;;;;12.23;100.00;96187.91;5028493;28;20064;-77
2022/10/23 06:43:52;;;;;;;5.17;2.07;;;;;;;12.26;100.00;96187.56;5062231;28;20087;-77
2022/10/23 06:46:38;;;;;;;2.67;1.67;;;;;;;12.27;100.00;96181.28;5036821;28;20049;-77
2022/10/23 06:49:32;;;;;;;3.80;1.13;;;;;;;12.30;100.00;96182.75;5060550;28;20623;-77
2022/10/23 06:51:59;;;;;;;2.00;0.97;;;;;;;12.29;100.00;96176.69;5047883;28;20053;-77
2022/10/23 06:54:24;;;;;;;2.33;1.10;;;;;;;12.28;100.00;96175.03;5047958;28;20059;-77
2022/10/23 06:57:10;;;;;;;4.90;1.20;;;;;;;12.36;100.00;96179.44;5048186;28;20037;-77
2022/10/23 06:59:45;;;;;;;2.97;1.00;;;;;;;12.33;100.00;96182.44;5047887;28;20033;-77
2022/10/23 07:02:11;;;;;;;2.70;0.90;;;;;;;12.22;100.00;96186.25;5041011;28;20105;-77
2022/10/23 07:04:39;;;;;;;2.10;0.90;;;;;;;12.30;100.00;96188.03;5046010;28;20425;-77
2022/10/23 07:07:11;;;;;;;2.70;1.20;;;;;;;12.32;100.00;96184.25;5047702;28;20078;-77
2022/10/23 07:09:43;;;;;;;;;;;;;;;12.27;100.00;96190.03;5026882;28;20099;-77
2022/10/23 07:12:28;;;;;;;3.47;1.00;;;;;;;12.35;100.00;96183.91;5050400;28;19923;-77
2022/10/23 07:15:14;;;;;;;8.20;1.60;;;;;;;12.30;100.00;96178.31;5048095;28;20037;-77
2022/10/23 07:17:42;;;;;;;3.63;1.73;;;;;;;12.27;100.00;96178.66;5044390;28;20037;-77
2022/10/23 07:20:08;;;;;;;3.90;1.43;;;;;;;12.31;100.00;96173.84;5047145;28;20531;-78
2022/10/23 07:22:35;;;;;;;3.43;1.33;;;;;;;12.21;100.00;96168.81;5048945;28;20040;-77
2022/10/23 07:25:08;;;;;;;6.10;1.60;;;;;;;12.36;100.00;96172.34;5047367;28;20021;-77
2022/10/23 07:27:37;;;;;;;2.97;1.40;;;;;;;12.46;100.00;96162.41;5046751;28;20505;-77
2022/10/23 07:30:06;;;;;;;3.93;1.20;;;;;;;12.64;100.00;96158.69;5037778;28;20037;-77
2022/10/23 07:32:38;;;;;;;4.97;1.25;;;;;;;12.67;100.00;96166.25;5062564;28;20059;-77
2022/10/23 07:35:30;;;;;;;3.67;1.17;;;;;;;12.73;100.00;96174.31;5046374;28;20037;-77
2022/10/23 07:38:03;;;;;;;;;;;;;;;12.88;100.00;96170.94;5047482;28;20091;-77
2022/10/23 07:40:33;;;;;;;3.50;1.07;;;;;;;13.04;100.00;96177.91;5047356;28;19913;-77
2022/10/23 07:42:59;;;;;;;2.63;1.20;;;;;;;13.32;100.00;96168.50;5047069;28;20114;-77
2022/10/23 07:45:25;;;;;;;2.13;1.07;;;;;;;13.35;100.00;96172.59;5045278;28;20025;-77
2022/10/23 07:47:52;;;;;;;2.87;1.00;;;;;;;13.49;100.00;96171.00;5028623;28;20041;-77
2022/10/23 07:50:19;;;;;;;1.90;0.80;;;;;;;13.50;100.00;96164.69;5045571;28;20094;-77
2022/10/23 07:52:45;;;;;;;1.63;0.90;;;;;;;13.66;100.00;96169.84;5047131;28;20208;-77
2022/10/23 07:55:12;;;;;;;4.20;0.93;;;;;;;13.74;100.00;96158.38;5045776;28;20051;-77
2022/10/23 07:57:45;;;;;;;2.97;1.45;;;;;;;13.44;100.00;96168.88;5045386;28;20394;-77
2022/10/23 08:00:27;;;;;;;4.10;1.10;;;;;;;13.15;100.00;96167.78;5040682;28;20044;-77
2022/10/23 08:03:01;;;;;;;3.67;1.47;;;;;;;13.05;100.00;96161.09;5044829;28;20435;-77
2022/10/23 08:05:27;;;;;;;4.90;1.67;;;;;;;13.06;100.00;96162.72;5047005;28;20120;-77
2022/10/23 08:07:57;;;;;;;13.33;2.00;;;;;;;12.89;100.00;96165.47;5044318;28;20064;-77
2022/10/23 08:10:24;;;;;;;4.20;1.60;;;;;;;12.84;100.00;96173.06;5039718;28;20040;-77
2022/10/23 08:12:49;;;;;;;2.80;1.40;;;;;;;12.97;100.00;96168.03;5059693;28;20120;-77
2022/10/23 08:15:19;;;;;;;11.03;2.17;;;;;;;13.27;100.00;96165.53;5046963;28;20162;-77
2022/10/23 08:18:00;;;;;;;5.10;1.97;;;;;;;13.76;100.00;96170.41;5043518;28;20086;-77
2022/10/23 08:20:52;;;;;;;4.33;1.77;;;;;;;13.90;100.00;96182.00;5046316;28;20067;-77
2022/10/23 08:23:19;;;;;;;5.13;2.00;;;;;;;13.95;100.00;96181.44;5045527;28;20048;-77
2022/10/23 08:25:45;;;;;;;5.23;1.60;;;;;;;13.90;100.00;96179.34;5045412;28;20029;-77
2022/10/23 08:28:14;;;;;;;4.83;1.40;;;;;;;13.93;100.00;96165.75;5044772;28;20029;-77
2022/10/23 08:30:49;;;;;;;3.27;1.73;;;;;;;14.05;100.00;96168.75;5045607;28;20024;-77
2022/10/23 08:33:16;;;;;;;8.90;1.77;;;;;;;14.20;100.00;96163.50;5045804;28;20709;-77
2022/10/23 08:35:43;;;;;;;2.20;1.30;;;;;;;14.54;100.00;96162.91;5046238;28;20029;-78
2022/10/23 08:38:09;;;;;;;4.57;1.50;;;;;;;14.53;100.00;96153.34;5029590;28;20059;-77
2022/10/23 08:40:47;;;;;;;6.10;1.70;;;;;;;14.55;100.00;96148.69;5030422;28;20123;-77
2022/10/23 08:44:14;;;;;;;5.45;1.60;;;;;;;15.02;100.00;96140.25;5044415;28;20116;-77
2022/10/23 08:46:46;;;;;;;2.97;1.60;;;;;;;15.18;100.00;96141.78;5030068;28;20044;-78
2022/10/23 08:49:46;;;;;;;4.53;1.50;;;;;;;15.01;100.00;96137.78;5047922;28;20028;-77
2022/10/23 08:52:43;;;;;;;4.60;1.23;;;;;;;15.06;100.00;96122.97;5030006;28;20500;-77
2022/10/23 08:55:28;;;;;;;1.98;1.17;;;;;;;15.29;100.00;96121.91;5051503;28;20051;-77
2022/10/23 08:58:02;;;;;;;4.68;1.35;;;;;;;15.88;100.00;96113.59;5049043;28;20120;-77
2022/10/23 09:00:29;;;;;;;2.38;1.02;;;;;;;16.44;100.00;96108.16;5049845;28;20759;-78
2022/10/23 09:02:55;;;;;;;7.35;1.20;;;;;;;16.64;100.00;96110.88;5049550;28;20033;-78
2022/10/23 09:05:23;;;;;;;3.35;0.80;;;;;;;16.83;100.00;96098.69;5033116;28;20033;-77
2022/10/23 09:08:24;;;;;;;2.25;1.10;;;;;;;17.52;100.00;96105.47;5048291;28;20044;-77
2022/10/23 09:11:08;;;;;;;2.20;1.35;;;;;;;17.67;100.00;96103.41;5052729;28;20040;-78
2022/10/23 09:13:58;;;;;;;8.45;2.67;;;;;;;17.08;100.00;96093.63;5050163;28;20380;-77
2022/10/23 09:16:30;;;;;;;8.98;3.95;;;;;;;16.66;100.00;96095.53;5048801;28;20043;-77
2022/10/23 09:18:57;;;;;;;7.45;2.35;;;;;;;16.43;100.00;96087.94;5043342;28;20115;-78
2022/10/23 09:21:29;;;;;;;3.53;1.35;;;;;;;16.26;100.00;96087.47;5049721;28;20017;-78
2022/10/23 09:23:55;;;;;;;3.97;1.42;;;;;;;16.29;100.00;96088.09;5049178;28;20091;-78
2022/10/23 09:26:21;;;;;;;2.97;1.10;;;;;;;15.94;100.00;96094.25;5048612;28;20045;-78
2022/10/23 09:28:54;;;;;;;2.15;1.08;;;;;;;16.05;100.00;96098.19;5048520;28;20037;-77
2022/10/23 09:31:19;;;;;;;;;;;;;;;16.22;100.00;96094.19;5050110;28;20039;-77
2022/10/23 09:33:58;;;;;;;5.25;1.50;;;;;;;15.94;100.00;96096.09;5050422;28;20011;-77
2022/10/23 09:36:27;;;;;;;7.13;1.98;;;;;;;16.08;100.00;96092.50;5055700;28;20082;-77
2022/10/23 09:38:57;;;;;;;12.77;3.90;;;;;;;16.24;100.00;96094.81;5044361;28;21124;-78
2022/10/23 09:41:39;;;;;;;4.30;1.55;;;;;;;16.28;100.00;96092.56;5048847;28;20048;-77
2022/10/23 09:44:16;;;;;;;7.70;2.42;;;;;;;16.50;100.00;96091.44;5047698;28;20040;-76
2022/10/23 09:46:44;;;;;;;10.15;3.25;;;;;;;17.12;100.00;96091.38;5048739;28;20036;-77
2022/10/23 09:49:17;;;;;;;6.38;2.00;;;;;;;17.63;100.00;96085.41;5030602;28;20038;-78
2022/10/23 09:52:03;;;;;;;6.85;2.05;;;;;;;18.06;100.00;96088.41;5050042;28;20033;-77
2022/10/23 09:54:32;;;;;;;7.72;2.80;;;;;;;18.70;100.00;96081.38;5048950;28;20059;-77
2022/10/23 09:57:12;;;;;;;4.57;1.60;;;;;;;19.81;100.00;96077.25;5048097;28;20471;-77
2022/10/23 09:59:39;;;;;;;4.55;1.20;;;;;;;20.67;100.00;96068.25;5031023;28;20041;-77
2022/10/23 10:02:28;;;;;;;4.05;1.50;;;;;;;20.44;100.00;96068.94;5029187;28;20498;-77
2022/10/23 10:05:19;;;;;;;4.63;1.90;;;;;;;20.78;100.00;96072.00;5042516;28;20055;-77
2022/10/23 10:07:54;;;;;;;3.22;1.38;;;;;;;19.59;100.00;96082.19;5045654;28;20129;-77
2022/10/23 10:10:25;;;;;;;5.93;2.40;;;;;;;19.85;100.00;96078.47;5047815;28;20076;-77
2022/10/23 10:12:57;;;;;;;5.88;2.20;;;;;;;20.31;100.00;96071.78;5050782;28;20051;-77
2022/10/23 10:15:49;;;;;;;3.15;1.55;;;;;;;20.02;100.00;96074.19;5049639;28;20090;-77
2022/10/23 10:18:35;;;;;;;3.17;1.27;;;;;;;20.71;100.00;96066.75;5043314;28;20037;-77
2022/10/23 10:21:12;;;;;;;3.72;1.35;;;;;;;20.64;100.00;96054.53;5043052;28;20032;-78
2022/10/23 10:24:26;;;;;;;4.65;1.58;;;;;;;20.28;100.00;96050.03;5029324;28;20060;-77
2022/10/23 10:27:12;;;;;;;3.75;2.00;;;;;;;20.43;100.00;96048.63;5009926;28;20041;-78
2022/10/23 10:30:09;;;;;;;3.88;0.90;;;;;;;20.82;100.00;96042.97;5037980;28;20040;-77
2022/10/23 10:32:47;;;;;;;1.13;0.68;;;;;;;21.11;100.00;96044.78;5045307;28;20389;-78
2022/10/23 10:35:33;;;;;;;3.47;1.15;;;;;;;21.06;94.20;96044.66;5047484;28;20040;-78
2022/10/23 10:38:04;;;;;;;6.97;1.80;;;;;;;21.60;92.55;96047.31;5047987;28;20025;-78
2022/10/23 10:40:35;;;;;;;6.40;2.30;;;;;;;21.60;93.72;96037.41;5049182;28;20082;-78
2022/10/23 10:43:31;;;;;;;5.47;1.80;;;;;;;21.33;93.05;96045.06;5047345;28;20029;-78
2022/10/23 10:46:03;;;;;;;4.85;1.80;;;;;;;21.27;96.67;96037.94;5048079;28;20037;-78
2022/10/23 10:49:00;;;;;;;5.03;1.60;;;;;;;21.19;97.10;96031.09;5033160;28;20042;-80
2022/10/23 10:51:32;;;;;;;2.10;1.10;;;;;;;21.47;89.75;96031.47;5050035;28;20033;-77
2022/10/23 10:54:06;;;;;;;1.77;1.10;;;;;;;21.19;84.32;96031.09;5043350;28;20490;-78
2022/10/23 10:56:37;;;;;;;2.60;1.08;;;;;;;20.82;82.75;96030.41;5027637;28;20123;-78
2022/10/23 10:59:12;;;;;;;2.70;1.50;;;;;;;20.97;81.89;96032.69;5055093;28;20033;-78
2022/10/23 11:02:04;;;;;;;1.60;0.77;;;;;;;20.70;85.18;96033.06;5037073;28;20030;-77
2022/10/23 11:04:43;;;;;;;2.00;1.10;;;;;;;20.93;84.07;96021.63;5043446;28;20034;-77
2022/10/23 11:07:16;;;;;;;2.60;0.85;;;;;;;20.59;86.59;96025.84;5028470;28;20041;-78
2022/10/23 11:09:42;;;;;;;2.53;1.00;;;;;;;21.20;87.67;96015.84;5043407;28;20043;-79
2022/10/23 11:12:26;;;;;;;1.02;0.65;;;;;;;21.17;83.49;96009.09;5031716;28;20021;-79
2022/10/23 11:14:52;;;;;;;1.80;0.75;;;;;;;21.02;85.98;95999.91;5047349;28;20075;-78
2022/10/23 11:17:39;;;;;;;1.73;0.70;;;;;;;20.59;85.18;95982.25;5024985;28;20029;-78
2022/10/23 11:20:31;;;;;;;3.83;0.60;;;;;;;20.48;85.53;95981.97;5056703;28;20589;-78
2022/10/23 11:23:23;;;;;;;2.90;0.70;;;;;;;20.30;86.32;95967.88;5062814;28;20029;-79
2022/10/23 11:26:04;;;;;;;1.55;0.60;;;;;;;20.47;85.06;95969.66;5048508;28;20151;-78
2022/10/23 11:28:32;;;;;;;1.45;0.63;;;;;;;20.84;78.59;95985.56;5046363;28;20482;-78
2022/10/23 11:31:08;;;;;;;2.70;0.85;;;;;;;20.51;81.36;95980.72;5045996;28;20118;-78
2022/10/23 11:33:46;;;;;;;1.88;0.60;;;;;;;20.83;78.33;95989.31;5047429;28;20107;-78
2022/10/23 11:36:19;;;;;;;1.13;0.68;;;;;;;21.29;79.02;95994.91;5025560;28;20040;-78
2022/10/23 11:38:50;;;;;;;1.38;0.68;;;;;;;20.98;82.59;95996.06;5029225;28;20136;-78
2022/10/23 11:41:25;;;;;;;1.23;0.90;;;;;;;21.32;83.84;95978.41;5045994;28;20128;-78
2022/10/23 11:43:55;;;;;;;1.25;0.80;;;;;;;21.50;83.03;95978.31;5023176;28;20065;-78
2022/10/23 11:46:24;;;;;;;4.32;1.70;;;;;;;22.13;82.91;95976.66;5046769;28;20037;-78
2022/10/23 11:48:51;;;;;;;2.22;0.90;;;;;;;22.20;79.69;95977.38;5038686;28;20021;-78
2022/10/23 11:51:34;;;;;;;5.03;1.00;;;;;;;22.06;76.78;95970.63;5046031;28;20075;-78
2022/10/23 11:54:08;;;;;;;3.67;1.15;;;;;;;22.48;76.18;95957.78;5039669;28;20036;-78
2022/10/23 11:56:36;;;;;;;2.92;0.95;;;;;;;21.76;81.05;95965.47;5028364;28;20036;-78
2022/10/23 11:59:41;;;;;;;5.40;1.80;;;;;;;21.93;83.15;95957.50;5044762;28;20116;-79